createdAt,value
2023-04-16T00:15:31.929Z,9.75
2023-04-16T00:19:49.382Z,9.73
2023-04-16T00:24:18.009Z,9.72
2023-04-16T00:28:46.876Z,9.70
2023-04-16T00:33:05.067Z,9.68
2023-04-16T00:37:34.689Z,9.66
2023-04-16T00:42:05.036Z,9.63
2023-04-16T00:46:24.026Z,9.62
2023-04-16T01:12:11.643Z,9.58
2023-04-16T01:16:41.788Z,9.57
2023-04-16T01:21:05.217Z,9.56
2023-04-16T01:25:23.427Z,9.56
2023-04-16T01:29:30.047Z,9.57
2023-04-16T01:51:10.833Z,9.47
2023-04-16T01:55:39.685Z,9.43
2023-04-16T02:18:27.429Z,9.49
2023-04-16T02:22:56.816Z,9.45
2023-04-16T02:27:26.251Z,9.43
2023-04-16T02:44:37.298Z,9.43
2023-04-16T02:49:06.812Z,9.42
2023-04-16T03:10:38.638Z,9.42
2023-04-16T03:15:08.158Z,9.41
2023-04-16T03:19:37.700Z,9.41
2023-04-16T03:42:31.456Z,9.37
2023-04-16T03:47:01.949Z,9.34
2023-04-16T04:12:42.040Z,9.30
2023-04-16T04:41:08.168Z,9.41
2023-04-16T04:45:26.221Z,9.40
2023-04-16T04:49:40.403Z,9.40
2023-04-16T04:53:58.635Z,9.40
2023-04-16T04:58:27.873Z,9.34
2023-04-16T05:02:36.533Z,9.33
2023-04-16T05:06:35.030Z,9.32
2023-04-16T05:10:40.115Z,9.34
2023-04-16T05:57:59.131Z,9.97
2023-04-16T06:02:28.748Z,9.93
2023-04-16T06:06:27.156Z,9.90
2023-04-16T06:10:49.978Z,9.86
2023-04-16T06:15:10.887Z,9.86
2023-04-16T06:32:11.356Z,10.03
2023-04-16T06:36:40.918Z,10.14
2023-04-16T06:41:01.456Z,10.23
2023-04-16T06:45:23.655Z,10.22
2023-04-16T06:49:53.520Z,10.18
2023-04-16T07:07:01.608Z,10.35
2023-04-16T07:11:30.118Z,10.35
2023-04-16T07:15:48.009Z,10.33
2023-04-16T07:20:06.223Z,10.29
2023-04-16T07:37:12.007Z,10.38
2023-04-16T07:41:40.804Z,10.37
2023-04-16T08:03:06.405Z,10.38
2023-04-16T08:07:08.551Z,10.54
2023-04-16T08:11:15.661Z,10.68
2023-04-16T08:15:21.988Z,10.86
2023-04-16T08:19:48.937Z,10.88
2023-04-16T08:24:09.474Z,10.84
2023-04-16T08:28:40.228Z,10.79
2023-04-16T08:33:11.906Z,10.74
2023-04-16T08:37:42.615Z,10.61
2023-04-16T08:46:08.055Z,10.58
2023-04-16T09:11:43.641Z,10.65
2023-04-16T09:16:13.275Z,10.77
2023-04-16T09:20:42.893Z,10.78
2023-04-16T09:25:12.179Z,10.81
2023-04-16T09:33:23.429Z,10.85
2023-04-16T09:37:48.739Z,10.81
2023-04-16T09:42:07.429Z,10.77
2023-04-16T09:46:37.011Z,10.77
2023-04-16T09:51:04.255Z,10.85
2023-04-16T09:55:22.852Z,10.86
2023-04-16T09:59:30.269Z,10.84
2023-04-16T10:16:46.059Z,10.69
2023-04-16T10:21:15.801Z,10.60
2023-04-16T10:25:46.004Z,10.50
2023-04-16T10:29:43.978Z,10.40
2023-04-16T10:33:52.210Z,10.36
2023-04-16T10:38:14.507Z,10.32
2023-04-16T10:55:57.529Z,10.65
2023-04-16T11:00:14.409Z,10.86
2023-04-16T11:04:47.451Z,11.16
2023-04-16T11:09:05.930Z,11.45
2023-04-16T11:13:33.841Z,11.59
2023-04-16T11:30:23.774Z,12.01
2023-04-16T11:34:53.421Z,12.04
2023-04-16T11:39:02.970Z,12.16
2023-04-16T11:43:23.635Z,12.37
2023-04-16T12:00:11.628Z,12.23
2023-04-16T12:04:42.561Z,12.16
2023-04-16T12:09:13.206Z,12.03
2023-04-16T12:13:54.828Z,11.92
2023-04-16T12:26:49.779Z,11.81
2023-04-16T13:00:49.091Z,11.27
2023-04-16T13:05:18.732Z,11.35
2023-04-16T13:09:48.451Z,11.28
2023-04-16T13:17:54.132Z,11.18
2023-04-16T13:22:14.757Z,11.09
2023-04-16T13:26:36.910Z,11.12
2023-04-16T13:30:55.066Z,11.20
2023-04-16T14:04:16.040Z,11.75
2023-04-16T14:08:18.299Z,11.65
2023-04-16T14:12:47.788Z,11.63
2023-04-16T14:17:17.527Z,11.60
2023-04-16T14:21:50.050Z,11.44
2023-04-16T14:43:55.685Z,11.23
2023-04-16T14:48:20.482Z,11.26
2023-04-16T14:52:38.941Z,11.20
2023-04-16T14:57:08.529Z,11.28
2023-04-16T15:01:03.784Z,11.25
2023-04-16T15:05:22.401Z,11.26
2023-04-16T15:09:53.452Z,11.27
2023-04-16T15:14:05.661Z,11.33
2023-04-16T15:42:56.739Z,11.22
2023-04-16T15:47:26.494Z,11.13
2023-04-16T15:51:33.978Z,11.14
2023-04-16T15:56:04.094Z,11.07
2023-04-16T16:00:24.655Z,11.02
2023-04-16T16:04:54.954Z,10.95
2023-04-16T16:09:02.435Z,10.89
2023-04-16T16:13:33.081Z,10.86
2023-04-16T16:34:35.429Z,10.72
2023-04-16T16:39:03.616Z,10.65
2023-04-16T16:43:29.331Z,10.58
2023-04-16T16:47:58.417Z,10.50
2023-04-16T16:52:27.889Z,10.44
2023-04-16T16:56:58.148Z,10.34
2023-04-16T17:01:16.160Z,10.24
2023-04-16T17:05:17.940Z,10.17
2023-04-16T17:09:42.642Z,10.10
2023-04-16T17:31:06.568Z,9.82
2023-04-16T17:35:38.386Z,9.73
2023-04-16T17:39:57.361Z,9.66
2023-04-16T17:44:29.754Z,9.63
2023-04-16T18:02:47.321Z,9.58
2023-04-16T18:07:17.056Z,9.52
2023-04-16T18:11:26.204Z,9.49
2023-04-16T18:15:55.368Z,9.46
2023-04-16T18:20:26.014Z,9.42
2023-04-16T18:46:20.323Z,9.40
2023-04-16T18:50:51.129Z,9.39
2023-04-16T18:55:21.122Z,9.39
2023-04-16T19:17:16.642Z,9.35
2023-04-16T19:21:46.018Z,9.33
2023-04-16T19:44:23.802Z,9.16
2023-04-16T19:48:53.504Z,9.12
2023-04-16T19:53:11.487Z,9.06
2023-04-16T19:57:22.658Z,9.00
2023-04-16T20:01:51.671Z,8.96
2023-04-16T20:23:21.274Z,8.66
2023-04-16T20:27:50.090Z,8.61
2023-04-16T20:32:19.964Z,8.57
2023-04-16T20:58:20.368Z,8.40
2023-04-16T21:02:40.966Z,8.34
2023-04-16T21:07:10.171Z,8.32
2023-04-16T21:33:25.626Z,8.17
2023-04-16T21:37:54.703Z,8.13
2023-04-16T21:42:15.638Z,8.07
2023-04-16T21:46:44.423Z,8.01
2023-04-16T21:55:38.680Z,7.97
2023-04-16T22:25:41.652Z,7.84
2023-04-16T22:30:00.129Z,7.76
2023-04-16T22:34:21.033Z,7.66
2023-04-16T22:43:40.907Z,7.63
2023-04-16T22:48:10.266Z,7.62
2023-04-16T22:52:41.814Z,7.55
2023-04-16T23:19:02.890Z,7.32
2023-04-16T23:23:32.303Z,7.25
2023-04-16T23:28:01.722Z,7.19
2023-04-16T23:49:44.739Z,7.06
2023-04-16T23:54:14.102Z,7.01
2023-04-16T23:58:43.600Z,6.98
